createdAt,value
2019-04-20T00:01:35.998Z,21.35
2019-04-20T00:04:16.141Z,21.29
2019-04-20T00:06:46.346Z,21.22
2019-04-20T00:09:15.849Z,21.12
2019-04-20T00:11:53.313Z,21.10
2019-04-20T00:14:18.955Z,21.00
2019-04-20T00:16:44.199Z,20.93
2019-04-20T00:19:16.199Z,20.94
2019-04-20T00:21:56.361Z,20.89
2019-04-20T00:24:31.092Z,20.84
2019-04-20T00:27:22.097Z,20.79
2019-04-20T00:29:45.331Z,20.71
2019-04-20T00:32:12.561Z,20.66
2019-04-20T00:34:37.253Z,20.62
2019-04-20T00:37:02.621Z,20.61
2019-04-20T00:39:32.115Z,20.58
2019-04-20T00:42:06.556Z,20.53
2019-04-20T00:44:35.972Z,20.49
2019-04-20T00:47:15.585Z,20.46
2019-04-20T00:49:48.398Z,20.38
2019-04-20T00:52:27.515Z,20.38
2019-04-20T00:54:37.012Z,20.30
2019-04-20T00:57:20.425Z,20.28
2019-04-20T00:59:59.154Z,20.28
2019-04-20T01:02:22.194Z,20.24
2019-04-20T01:04:58.283Z,20.20
2019-04-20T01:07:29.085Z,20.15
2019-04-20T01:10:09.123Z,20.04
2019-04-20T01:12:40.617Z,19.97
2019-04-20T01:15:16.895Z,19.88
2019-04-20T01:17:42.925Z,19.81
2019-04-20T01:20:12.121Z,19.72
2019-04-20T01:22:50.998Z,19.66
2019-04-20T01:25:19.511Z,19.62
2019-04-20T01:28:04.494Z,19.51
2019-04-20T01:30:22.529Z,19.47
2019-04-20T01:33:02.372Z,19.44
2019-04-20T01:35:37.531Z,19.37
2019-04-20T01:38:09.647Z,19.34
2019-04-20T01:40:19.143Z,19.29
2019-04-20T01:42:49.002Z,19.29
2019-04-20T01:45:25.656Z,19.23
2019-04-20T01:47:54.106Z,19.18
2019-04-20T01:50:26.167Z,19.12
2019-04-20T01:53:03.457Z,19.09
2019-04-20T01:55:42.585Z,18.99
2019-04-20T01:58:55.319Z,18.95
2019-04-20T02:01:24.290Z,18.89
2019-04-20T02:04:15.775Z,18.85
2019-04-20T02:06:48.837Z,18.81
2019-04-20T02:09:17.163Z,18.74
2019-04-20T02:11:47.356Z,18.69
2019-04-20T02:14:25.664Z,18.65
2019-04-20T02:16:50.833Z,18.61
2019-04-20T02:19:30.529Z,18.60
2019-04-20T02:22:03.857Z,18.58
2019-04-20T02:24:19.632Z,18.52
2019-04-20T02:26:50.101Z,18.51
2019-04-20T02:29:40.623Z,18.44
2019-04-20T02:32:26.493Z,18.42
2019-04-20T02:35:24.063Z,18.38
2019-04-20T02:38:26.683Z,18.35
2019-04-20T02:43:35.783Z,18.26
2019-04-20T02:45:40.454Z,18.24
2019-04-20T02:48:33.353Z,18.20
2019-04-20T02:50:44.234Z,18.20
2019-04-20T02:55:48.303Z,18.09
2019-04-20T02:58:19.843Z,18.07
2019-04-20T03:00:44.786Z,18.04
2019-04-20T03:03:00.137Z,17.96
2019-04-20T03:05:29.784Z,17.90
2019-04-20T03:08:08.931Z,17.86
2019-04-20T03:10:52.444Z,17.82
2019-04-20T03:13:19.850Z,17.77
2019-04-20T03:15:48.342Z,17.76
2019-04-20T03:18:20.373Z,17.71
2019-04-20T03:20:54.418Z,17.71
2019-04-20T03:23:33.556Z,17.68
2019-04-20T03:26:06.418Z,17.67
2019-04-20T03:29:01.571Z,17.64
2019-04-20T03:32:08.470Z,17.57
2019-04-20T03:34:38.254Z,17.56
2019-04-20T03:36:52.019Z,17.49
2019-04-20T03:39:09.275Z,17.51
2019-04-20T03:41:33.028Z,17.49
2019-04-20T03:44:05.634Z,17.45
2019-04-20T03:46:37.640Z,17.44
2019-04-20T03:49:15.168Z,17.39
2019-04-20T03:51:53.086Z,17.40
2019-04-20T03:54:36.997Z,17.38
2019-04-20T03:57:38.414Z,17.35
2019-04-20T04:00:26.944Z,17.29
2019-04-20T04:03:12.564Z,17.32
2019-04-20T04:06:08.367Z,17.29
2019-04-20T04:08:34.414Z,17.28
2019-04-20T04:11:16.317Z,17.27
2019-04-20T04:13:31.501Z,17.25
2019-04-20T04:16:04.843Z,17.27
2019-04-20T04:18:38.630Z,17.26
2019-04-20T04:21:08.433Z,17.24
2019-04-20T04:23:50.353Z,17.25
2019-04-20T04:26:27.451Z,17.24
2019-04-20T04:29:09.620Z,17.20
2019-04-20T04:31:33.813Z,17.21
2019-04-20T04:34:02.387Z,17.23
2019-04-20T04:36:37.557Z,17.26
2019-04-20T04:39:22.825Z,17.27
2019-04-20T04:41:39.958Z,17.30
2019-04-20T04:44:15.262Z,17.30
2019-04-20T04:46:33.849Z,17.27
2019-04-20T04:49:18.025Z,17.28
2019-04-20T04:51:47.086Z,17.24
2019-04-20T04:54:18.432Z,17.25
2019-04-20T04:56:41.718Z,17.24
2019-04-20T04:59:12.782Z,17.23
2019-04-20T05:01:46.963Z,17.22
2019-04-20T05:04:33.901Z,17.23
2019-04-20T05:06:59.443Z,17.24
2019-04-20T05:09:17.663Z,17.21
2019-04-20T05:11:56.804Z,17.24
2019-04-20T05:14:26.243Z,17.19
2019-04-20T05:17:07.684Z,17.16
2019-04-20T05:19:42.919Z,17.19
2019-04-20T05:22:19.343Z,17.21
2019-04-20T05:24:58.056Z,17.22
2019-04-20T05:27:51.048Z,17.22
2019-04-20T05:30:05.674Z,17.22
2019-04-20T05:32:44.918Z,17.23
2019-04-20T05:35:27.000Z,17.24
2019-04-20T05:38:18.193Z,17.25
2019-04-20T05:40:32.766Z,17.32
2019-04-20T05:43:12.742Z,17.33
2019-04-20T05:45:38.861Z,17.34
2019-04-20T05:48:11.937Z,17.36
2019-04-20T05:50:42.223Z,17.41
2019-04-20T05:53:21.305Z,17.44
2019-04-20T05:55:53.251Z,17.51
2019-04-20T05:58:24.625Z,17.58
2019-04-20T06:00:55.353Z,17.62
2019-04-20T06:03:23.282Z,17.69
2019-04-20T06:05:58.293Z,17.78
2019-04-20T06:08:32.993Z,17.85
2019-04-20T06:10:56.422Z,17.92
2019-04-20T06:13:29.936Z,18.03
2019-04-20T06:16:40.281Z,18.08
2019-04-20T06:19:20.903Z,18.12
2019-04-20T06:21:52.908Z,18.15
2019-04-20T06:24:38.074Z,18.21
2019-04-20T06:27:00.618Z,18.31
2019-04-20T06:29:33.562Z,18.40
2019-04-20T06:32:05.081Z,18.46
2019-04-20T06:37:02.852Z,18.55
2019-04-20T06:44:41.489Z,18.64
2019-04-20T06:47:26.757Z,18.70
2019-04-20T06:52:25.958Z,18.82
2019-04-20T06:55:05.474Z,18.90
2019-04-20T06:57:40.613Z,18.96
2019-04-20T07:02:45.732Z,19.03
2019-04-20T07:05:26.004Z,19.06
2019-04-20T07:08:07.094Z,19.13
2019-04-20T07:10:19.505Z,19.19
2019-04-20T07:12:40.923Z,19.27
2019-04-20T07:15:17.729Z,19.32
2019-04-20T07:17:57.657Z,19.36
2019-04-20T07:20:35.229Z,19.43
2019-04-20T07:23:13.523Z,19.43
2019-04-20T07:25:40.760Z,19.48
2019-04-20T07:28:05.844Z,19.48
2019-04-20T07:30:35.685Z,19.52
2019-04-20T07:33:08.547Z,19.56
2019-04-20T07:35:49.372Z,19.61
2019-04-20T07:38:25.592Z,19.66
2019-04-20T07:40:44.136Z,19.74
2019-04-20T07:43:12.944Z,19.75
2019-04-20T07:45:45.959Z,19.78
2019-04-20T07:48:29.290Z,19.79
2019-04-20T07:50:40.781Z,19.80
2019-04-20T07:53:18.806Z,19.84
2019-04-20T07:55:54.127Z,19.91
2019-04-20T07:58:10.781Z,19.94
2019-04-20T08:01:07.900Z,19.96
2019-04-20T08:03:52.601Z,20.01
2019-04-20T08:06:03.677Z,20.05
2019-04-20T08:08:40.615Z,20.10
2019-04-20T08:11:12.485Z,20.14
2019-04-20T08:16:24.429Z,20.22
2019-04-20T08:18:49.872Z,20.25
2019-04-20T08:21:25.730Z,20.27
2019-04-20T08:23:53.684Z,20.32
2019-04-20T08:26:14.040Z,20.39
2019-04-20T08:28:48.612Z,20.37
2019-04-20T08:31:32.261Z,20.43
2019-04-20T08:34:21.323Z,20.48
2019-04-20T08:36:46.074Z,20.53
2019-04-20T08:39:30.405Z,20.57
2019-04-20T08:41:53.571Z,20.61
2019-04-20T08:44:42.891Z,20.64
2019-04-20T08:47:01.368Z,20.71
2019-04-20T08:49:25.167Z,20.75
2019-04-20T08:51:59.990Z,20.84
2019-04-20T08:54:17.036Z,20.89
2019-04-20T08:56:42.430Z,20.96
2019-04-20T09:01:33.739Z,21.09
2019-04-20T09:04:11.489Z,21.13
2019-04-20T09:06:45.711Z,21.20
2019-04-20T09:09:34.747Z,21.28
2019-04-20T09:11:56.112Z,21.32
2019-04-20T09:14:20.897Z,21.40
2019-04-20T09:16:59.776Z,21.47
2019-04-20T09:19:36.702Z,21.66
2019-04-20T09:22:24.315Z,21.74
2019-04-20T09:25:07.496Z,21.84
2019-04-20T09:27:25.329Z,21.93
2019-04-20T09:30:03.378Z,22.03
2019-04-20T09:32:40.206Z,22.14
2019-04-20T09:35:16.934Z,22.22
2019-04-20T09:37:44.648Z,22.32
2019-04-20T09:40:29.289Z,22.38
2019-04-20T09:42:48.732Z,22.51
2019-04-20T09:45:30.581Z,22.74
2019-04-20T09:47:55.330Z,22.91
2019-04-20T09:50:40.871Z,23.10
2019-04-20T09:53:12.807Z,23.26
2019-04-20T09:55:38.014Z,23.42
2019-04-20T09:58:14.841Z,23.60
2019-04-20T10:00:56.817Z,23.76
2019-04-20T10:03:12.931Z,23.89
2019-04-20T10:05:43.353Z,24.06
2019-04-20T10:08:13.694Z,24.19
2019-04-20T10:10:45.593Z,24.34
2019-04-20T10:13:17.393Z,24.45
2019-04-20T10:15:46.282Z,24.63
2019-04-20T10:18:15.433Z,24.74
2019-04-20T10:20:45.360Z,24.89
2019-04-20T10:23:14.531Z,24.99
2019-04-20T10:25:44.700Z,25.14
2019-04-20T10:28:13.955Z,25.29
2019-04-20T10:30:44.298Z,25.36
2019-04-20T10:33:15.473Z,25.44
2019-04-20T10:35:45.535Z,25.52
2019-04-20T10:38:21.765Z,25.63
2019-04-20T10:41:03.472Z,25.72
2019-04-20T10:43:23.866Z,25.87
2019-04-20T10:45:53.274Z,26.01
2019-04-20T10:48:23.535Z,26.08
2019-04-20T10:50:52.893Z,26.16
2019-04-20T10:53:23.771Z,26.27
2019-04-20T10:55:53.569Z,26.40
2019-04-20T10:58:22.779Z,26.56
2019-04-20T11:00:52.009Z,26.69
2019-04-20T11:03:22.800Z,26.92
2019-04-20T11:05:52.958Z,27.10
2019-04-20T11:08:22.497Z,27.21
2019-04-20T11:11:05.143Z,27.32
2019-04-20T11:13:23.540Z,27.46
2019-04-20T11:15:52.757Z,27.52
2019-04-20T11:18:22.330Z,27.66
2019-04-20T11:20:51.455Z,27.77
2019-04-20T11:23:20.601Z,27.90
2019-04-20T11:25:50.516Z,28.04
2019-04-20T11:28:19.928Z,28.20
2019-04-20T11:30:50.092Z,28.29
2019-04-20T11:33:20.384Z,28.40
2019-04-20T11:35:49.938Z,28.53
2019-04-20T11:38:19.721Z,28.69
2019-04-20T11:41:01.505Z,28.81
2019-04-20T11:43:20.154Z,28.95
2019-04-20T11:45:49.304Z,29.16
2019-04-20T11:48:19.163Z,29.36
2019-04-20T11:50:49.477Z,29.54
2019-04-20T11:53:19.381Z,29.67
2019-04-20T11:55:52.121Z,29.80
2019-04-20T11:58:21.785Z,29.98
2019-04-20T12:00:59.402Z,30.12
2019-04-20T12:03:34.205Z,30.23
2019-04-20T12:06:02.809Z,30.43
2019-04-20T12:08:29.283Z,30.68
2019-04-20T12:11:03.120Z,30.90
2019-04-20T12:13:30.870Z,31.00
2019-04-20T12:16:01.435Z,31.23
2019-04-20T12:18:31.673Z,31.31
2019-04-20T12:21:01.165Z,31.47
2019-04-20T12:23:30.608Z,31.61
2019-04-20T12:26:04.778Z,31.64
2019-04-20T12:28:37.995Z,31.67
2019-04-20T12:31:13.147Z,31.54
2019-04-20T12:33:38.263Z,31.68
2019-04-20T12:36:10.249Z,31.87
2019-04-20T12:38:41.201Z,32.20
2019-04-20T12:41:12.497Z,32.39
2019-04-20T12:43:41.921Z,32.43
2019-04-20T12:46:13.635Z,32.76
2019-04-20T12:48:43.784Z,32.90
2019-04-20T12:51:13.442Z,33.11
2019-04-20T12:53:44.514Z,33.22
2019-04-20T12:56:18.314Z,33.40
2019-04-20T12:58:49.404Z,33.71
2019-04-20T13:01:21.061Z,33.71
2019-04-20T13:03:53.188Z,33.76
2019-04-20T13:06:23.833Z,34.03
2019-04-20T13:08:58.415Z,34.22
2019-04-20T13:11:28.767Z,34.25
2019-04-20T13:14:42.225Z,34.22
2019-04-20T13:17:12.393Z,34.43
2019-04-20T13:19:42.040Z,34.51
2019-04-20T13:22:12.808Z,34.71
2019-04-20T13:24:43.150Z,34.75
2019-04-20T13:27:14.328Z,35.09
2019-04-20T13:29:47.196Z,35.40
2019-04-20T13:32:15.950Z,35.36
2019-04-20T13:34:46.566Z,34.96
2019-04-20T13:37:16.048Z,35.28
2019-04-20T13:39:45.304Z,35.49
2019-04-20T13:42:21.192Z,35.36
2019-04-20T13:44:45.999Z,35.65
2019-04-20T13:47:19.093Z,36.06
2019-04-20T13:49:49.195Z,36.39
2019-04-20T13:52:18.428Z,36.34
2019-04-20T13:54:47.567Z,36.25
2019-04-20T13:57:21.717Z,36.45
2019-04-20T13:59:55.865Z,36.66
2019-04-20T14:02:33.515Z,36.60
2019-04-20T14:05:06.659Z,36.35
2019-04-20T14:07:37.458Z,36.32
2019-04-20T14:10:09.261Z,36.58
2019-04-20T14:12:50.599Z,36.85
2019-04-20T14:15:11.185Z,36.50
2019-04-20T14:17:41.404Z,36.91
2019-04-20T14:20:14.980Z,37.39
2019-04-20T14:22:43.011Z,37.56
2019-04-20T14:25:13.187Z,37.33
2019-04-20T14:27:42.744Z,36.81
2019-04-20T14:30:12.998Z,36.77
2019-04-20T14:32:43.024Z,37.19
2019-04-20T14:35:12.940Z,37.08
2019-04-20T14:37:43.716Z,37.07
2019-04-20T14:40:14.459Z,37.49
2019-04-20T14:42:48.624Z,37.14
2019-04-20T14:45:16.524Z,36.83
2019-04-20T14:47:45.940Z,37.02
2019-04-20T14:50:17.977Z,36.88
2019-04-20T14:52:47.305Z,37.06
2019-04-20T14:55:17.720Z,36.71
2019-04-20T14:57:48.142Z,36.68
2019-04-20T15:00:37.465Z,36.88
2019-04-20T15:03:45.470Z,37.21
2019-04-20T15:06:16.233Z,37.55
2019-04-20T15:08:48.371Z,37.81
2019-04-20T15:11:18.828Z,38.06
2019-04-20T15:13:49.033Z,37.83
2019-04-20T15:16:18.745Z,37.61
2019-04-20T15:19:09.658Z,37.73
2019-04-20T15:21:41.782Z,37.84
2019-04-20T15:24:11.391Z,37.79
2019-04-20T15:26:42.493Z,37.61
2019-04-20T15:29:12.580Z,37.11
2019-04-20T15:31:41.990Z,36.27
2019-04-20T15:34:11.277Z,36.40
2019-04-20T15:36:42.291Z,36.49
2019-04-20T15:39:11.705Z,36.31
2019-04-20T15:41:41.108Z,36.31
2019-04-20T15:44:11.211Z,36.54
2019-04-20T15:46:41.654Z,36.58
2019-04-20T15:49:11.265Z,36.34
2019-04-20T15:51:41.781Z,36.25
2019-04-20T15:54:11.486Z,36.18
2019-04-20T15:56:42.473Z,36.03
2019-04-20T15:59:12.752Z,35.78
2019-04-20T16:01:49.350Z,35.69
2019-04-20T16:04:42.658Z,35.67
2019-04-20T16:07:10.898Z,34.98
2019-04-20T16:09:40.491Z,34.99
2019-04-20T16:12:11.027Z,34.95
2019-04-20T16:14:41.741Z,35.04
2019-04-20T16:17:12.514Z,34.95
2019-04-20T16:19:51.402Z,34.83
2019-04-20T16:22:13.474Z,34.77
2019-04-20T16:24:49.030Z,34.58
2019-04-20T16:27:36.174Z,34.40
2019-04-20T16:30:11.567Z,34.24
2019-04-20T16:32:42.646Z,34.09
2019-04-20T16:35:12.372Z,33.93
2019-04-20T16:37:42.656Z,33.53
2019-04-20T16:40:13.629Z,33.22
2019-04-20T16:42:45.111Z,33.03
2019-04-20T16:45:15.120Z,33.04
2019-04-20T16:47:44.588Z,33.08
2019-04-20T16:50:15.013Z,33.05
2019-04-20T16:52:44.979Z,33.03
2019-04-20T16:55:14.778Z,33.02
2019-04-20T16:57:47.530Z,32.96
2019-04-20T17:00:17.776Z,32.78
2019-04-20T17:02:47.986Z,32.72
2019-04-20T17:05:19.495Z,32.65
2019-04-20T17:07:50.964Z,32.35
2019-04-20T17:10:22.383Z,32.01
2019-04-20T17:12:53.657Z,31.73
2019-04-20T17:15:23.607Z,31.44
2019-04-20T17:17:55.180Z,31.19
2019-04-20T17:20:25.721Z,30.95
2019-04-20T17:22:56.209Z,30.71
2019-04-20T17:25:25.972Z,30.43
2019-04-20T17:28:15.018Z,30.30
2019-04-20T17:30:59.016Z,30.21
2019-04-20T17:33:46.465Z,30.09
2019-04-20T17:36:14.465Z,29.92
2019-04-20T17:38:41.793Z,29.77
2019-04-20T17:41:29.135Z,29.51
2019-04-20T17:43:58.861Z,29.31
2019-04-20T17:46:23.749Z,29.13
2019-04-20T17:48:59.789Z,29.03
2019-04-20T17:51:36.154Z,28.99
2019-04-20T17:54:06.863Z,28.81
2019-04-20T17:56:40.465Z,28.68
2019-04-20T17:59:10.381Z,28.64
2019-04-20T18:02:17.547Z,28.61
2019-04-20T18:05:24.185Z,28.49
2019-04-20T18:07:41.082Z,28.41
2019-04-20T18:10:06.741Z,28.35
2019-04-20T18:12:26.898Z,28.25
2019-04-20T18:15:06.192Z,28.20
2019-04-20T18:18:12.330Z,28.17
2019-04-20T18:20:43.043Z,28.07
2019-04-20T18:23:13.104Z,28.01
2019-04-20T18:26:07.837Z,27.97
2019-04-20T18:28:31.439Z,27.90
2019-04-20T18:30:57.339Z,27.81
2019-04-20T18:33:30.182Z,27.72
2019-04-20T18:35:58.337Z,27.62
2019-04-20T18:38:30.562Z,27.54
2019-04-20T18:41:04.598Z,27.47
2019-04-20T18:50:47.368Z,27.22
2019-04-20T18:53:26.805Z,27.15
2019-04-20T18:55:56.064Z,27.06
2019-04-20T18:58:23.223Z,27.00
2019-04-20T19:00:57.084Z,26.96
2019-04-20T19:03:33.700Z,26.89
2019-04-20T19:06:05.571Z,26.81
2019-04-20T19:08:40.513Z,26.71
2019-04-20T19:11:15.100Z,26.65
2019-04-20T19:13:51.141Z,26.68
2019-04-20T19:16:52.904Z,26.68
2019-04-20T19:19:25.805Z,26.66
2019-04-20T19:21:46.016Z,26.66
2019-04-20T19:24:21.159Z,26.66
2019-04-20T19:26:55.695Z,26.65
2019-04-20T19:29:32.766Z,26.61
2019-04-20T19:32:17.165Z,26.59
2019-04-20T19:34:45.387Z,26.59
2019-04-20T19:37:15.873Z,26.57
2019-04-20T19:39:57.181Z,26.53
2019-04-20T19:42:31.126Z,26.55
2019-04-20T19:45:01.949Z,26.53
2019-04-20T19:47:38.433Z,26.47
2019-04-20T19:50:25.155Z,26.40
2019-04-20T19:52:50.394Z,26.38
2019-04-20T19:55:16.113Z,26.39
2019-04-20T19:57:48.859Z,26.36
2019-04-20T19:59:59.856Z,26.33
2019-04-20T20:02:29.897Z,26.32
2019-04-20T20:05:05.348Z,26.29
2019-04-20T20:07:37.727Z,26.28
2019-04-20T20:10:07.756Z,26.26
2019-04-20T20:12:35.724Z,26.26
2019-04-20T20:15:14.820Z,26.21
2019-04-20T20:18:02.290Z,26.17
2019-04-20T20:20:38.215Z,26.10
2019-04-20T20:22:50.501Z,26.05
2019-04-20T20:25:25.780Z,26.00
2019-04-20T20:27:58.412Z,25.92
2019-04-20T20:30:35.337Z,25.88
2019-04-20T20:33:18.874Z,25.81
2019-04-20T20:35:45.885Z,25.77
2019-04-20T20:38:21.540Z,25.66
2019-04-20T20:40:54.924Z,25.54
2019-04-20T20:43:22.738Z,25.48
2019-04-20T20:45:50.519Z,25.35
2019-04-20T20:48:32.499Z,25.23
2019-04-20T20:51:04.924Z,25.15
2019-04-20T20:53:32.859Z,25.09
2019-04-20T20:56:01.836Z,25.07
2019-04-20T20:58:36.140Z,24.96
2019-04-20T21:00:57.641Z,24.95
2019-04-20T21:03:32.235Z,24.92
2019-04-20T21:05:59.951Z,24.93
2019-04-20T21:08:36.224Z,24.86
2019-04-20T21:11:15.203Z,24.82
2019-04-20T21:13:42.393Z,24.76
2019-04-20T21:16:16.664Z,24.70
2019-04-20T21:18:59.869Z,24.66
2019-04-20T21:21:30.169Z,24.65
2019-04-20T21:23:56.020Z,24.61
2019-04-20T21:26:23.239Z,24.57
2019-04-20T21:28:48.093Z,24.52
2019-04-20T21:31:23.623Z,24.48
2019-04-20T21:33:49.070Z,24.39
2019-04-20T21:36:23.772Z,24.33
2019-04-20T21:38:51.850Z,24.22
2019-04-20T21:41:26.086Z,24.15
2019-04-20T21:43:58.336Z,24.09
2019-04-20T21:46:29.888Z,24.01
2019-04-20T21:49:09.741Z,23.93
2019-04-20T21:51:44.655Z,23.84
2019-04-20T21:54:06.790Z,23.71
2019-04-20T21:56:46.102Z,23.60
2019-04-20T21:59:16.436Z,23.53
2019-04-20T22:01:57.762Z,23.47
2019-04-20T22:04:22.491Z,23.38
2019-04-20T22:06:54.294Z,23.34
2019-04-20T22:09:32.340Z,23.28
2019-04-20T22:11:58.097Z,23.27
2019-04-20T22:14:31.327Z,23.24
2019-04-20T22:17:00.822Z,23.11
2019-04-20T22:19:40.119Z,23.13
2019-04-20T22:22:13.818Z,23.05
2019-04-20T22:24:52.105Z,23.03
2019-04-20T22:27:15.951Z,23.04
2019-04-20T22:29:41.797Z,22.98
2019-04-20T22:32:21.750Z,22.97
2019-04-20T22:34:59.261Z,22.96
2019-04-20T22:37:28.708Z,22.86
2019-04-20T22:39:58.363Z,22.74
2019-04-20T22:42:37.913Z,22.61
2019-04-20T22:47:48.170Z,22.50
2019-04-20T22:50:33.992Z,22.43
2019-04-20T22:53:15.081Z,22.37
2019-04-20T22:56:01.251Z,22.26
2019-04-20T22:58:27.435Z,22.10
2019-04-20T23:00:54.237Z,21.93
2019-04-20T23:03:18.824Z,21.81
2019-04-20T23:05:48.969Z,21.75
2019-04-20T23:08:18.391Z,21.71
2019-04-20T23:10:51.449Z,21.62
2019-04-20T23:13:30.363Z,21.56
2019-04-20T23:16:00.856Z,21.55
2019-04-20T23:18:29.492Z,21.50
2019-04-20T23:21:05.037Z,21.54
2019-04-20T23:23:32.527Z,21.48
2019-04-20T23:26:07.156Z,21.47
2019-04-20T23:28:42.148Z,21.41
2019-04-20T23:31:15.211Z,21.39
2019-04-20T23:33:40.198Z,21.38
2019-04-20T23:36:19.225Z,21.39
2019-04-20T23:38:49.023Z,21.36
2019-04-20T23:41:21.927Z,21.31
2019-04-20T23:44:04.541Z,21.23
2019-04-20T23:46:53.440Z,21.24
2019-04-20T23:49:42.827Z,21.26
2019-04-20T23:52:33.171Z,21.26
2019-04-20T23:54:35.413Z,21.23
2019-04-20T23:57:03.894Z,21.16
2019-04-20T23:59:41.157Z,21.16
